createdAt,value
2024-01-16T00:01:19.508Z,1.24
2024-01-16T00:03:52.079Z,1.25
2024-01-16T00:06:22.007Z,1.03
2024-01-16T00:08:51.859Z,1.22
2024-01-16T00:11:22.907Z,1.29
2024-01-16T00:13:53.917Z,1.27
2024-01-16T00:16:23.759Z,1.27
2024-01-16T00:18:56.430Z,1.23
2024-01-16T00:21:26.083Z,1.26
2024-01-16T00:23:56.089Z,1.25
2024-01-16T00:26:26.517Z,1.26
2024-01-16T00:28:56.706Z,1.22
2024-01-16T00:31:26.787Z,1.24
2024-01-16T00:33:59.393Z,1.26
2024-01-16T00:36:29.304Z,1.15
2024-01-16T00:38:59.250Z,1.18
2024-01-16T00:41:30.063Z,1.25
2024-01-16T00:44:00.009Z,1.27
2024-01-16T00:46:30.824Z,1.24
2024-01-16T00:49:03.338Z,1.26
2024-01-16T00:51:33.267Z,1.25
2024-01-16T00:54:03.079Z,1.22
2024-01-16T00:56:34.783Z,1.22
2024-01-16T00:59:04.711Z,1.20
2024-01-16T01:01:34.557Z,1.24
2024-01-16T01:04:07.133Z,1.22
2024-01-16T01:06:37.314Z,1.24
2024-01-16T01:09:08.040Z,1.26
2024-01-16T01:11:38.923Z,1.24
2024-01-16T01:14:10.187Z,1.27
2024-01-16T01:16:40.614Z,1.26
2024-01-16T01:19:14.188Z,1.26
2024-01-16T01:21:44.347Z,1.25
2024-01-16T01:24:14.189Z,1.22
2024-01-16T01:26:47.202Z,1.18
2024-01-16T01:29:19.044Z,1.19
2024-01-16T01:31:51.498Z,0.45
2024-01-16T01:34:24.243Z,1.19
2024-01-16T01:36:54.368Z,1.17
2024-01-16T01:39:24.542Z,1.12
2024-01-16T01:41:55.017Z,1.10
2024-01-16T01:44:26.373Z,1.16
2024-01-16T01:46:59.009Z,1.14
2024-01-16T01:49:32.168Z,1.14
2024-01-16T01:52:02.679Z,1.13
2024-01-16T01:54:35.674Z,1.12
2024-01-16T01:57:06.539Z,1.18
2024-01-16T01:59:37.082Z,1.20
2024-01-16T02:02:08.612Z,1.20
2024-01-16T02:04:42.514Z,1.18
2024-01-16T02:07:12.333Z,1.19
2024-01-16T02:09:42.725Z,1.19
2024-01-16T02:12:12.737Z,1.23
2024-01-16T02:14:43.459Z,1.16
2024-01-16T02:17:13.374Z,1.16
2024-01-16T02:19:46.484Z,1.20
2024-01-16T02:22:23.650Z,0.95
2024-01-16T02:24:57.981Z,1.17
2024-01-16T02:27:28.051Z,0.88
2024-01-16T02:29:57.915Z,0.99
2024-01-16T02:32:30.168Z,0.91
2024-01-16T02:35:00.321Z,0.76
2024-01-16T02:37:30.244Z,0.94
2024-01-16T02:40:07.533Z,0.94
2024-01-16T02:42:38.770Z,0.91
2024-01-16T02:45:09.977Z,0.71
2024-01-16T02:47:39.862Z,0.90
2024-01-16T02:50:11.944Z,0.84
2024-01-16T02:52:41.852Z,0.82
2024-01-16T02:55:15.860Z,0.77
2024-01-16T02:57:45.980Z,0.80
2024-01-16T03:00:16.894Z,0.71
2024-01-16T03:02:47.496Z,0.81
2024-01-16T03:05:17.855Z,0.77
2024-01-16T03:07:48.365Z,0.66
2024-01-16T03:10:21.074Z,0.60
2024-01-16T03:12:51.154Z,0.41
2024-01-16T03:15:21.497Z,0.49
2024-01-16T03:17:52.056Z,0.34
2024-01-16T03:20:24.727Z,0.49
2024-01-16T03:22:54.694Z,0.49
2024-01-16T03:25:28.388Z,0.56
2024-01-16T03:27:58.591Z,0.50
2024-01-16T03:30:29.145Z,0.45
2024-01-16T03:32:59.330Z,0.49
2024-01-16T03:35:29.438Z,0.31
2024-01-16T03:37:59.204Z,0.43
2024-01-16T03:40:35.693Z,0.40
2024-01-16T03:43:06.637Z,0.35
2024-01-16T03:45:37.013Z,0.24
2024-01-16T03:48:07.677Z,0.38
2024-01-16T03:50:38.119Z,0.34
2024-01-16T03:53:08.011Z,0.30
2024-01-16T03:55:40.714Z,0.23
2024-01-16T03:58:13.432Z,0.22
2024-01-16T04:00:43.565Z,0.29
2024-01-16T04:03:14.494Z,0.25
2024-01-16T04:05:44.696Z,0.14
2024-01-16T04:08:17.837Z,0.18
2024-01-16T04:10:50.984Z,0.20
2024-01-16T04:13:20.585Z,0.17
2024-01-16T04:15:50.450Z,0.08
2024-01-16T04:18:20.729Z,0.11
2024-01-16T04:20:51.366Z,0.07
2024-01-16T04:23:21.661Z,0.07
2024-01-16T04:25:54.074Z,0.07
2024-01-16T04:28:24.055Z,0.09
2024-01-16T04:30:54.051Z,0.08
2024-01-16T04:33:24.103Z,0.08
2024-01-16T04:35:54.651Z,0.08
2024-01-16T04:38:24.997Z,0.09
2024-01-16T04:40:57.475Z,0.12
2024-01-16T04:43:27.661Z,0.19
2024-01-16T04:45:59.281Z,0.20
2024-01-16T04:48:31.325Z,0.28
2024-01-16T04:51:01.270Z,0.26
2024-01-16T04:53:33.832Z,0.24
2024-01-16T04:56:06.736Z,0.26
2024-01-16T04:58:36.667Z,0.27
2024-01-16T05:01:06.683Z,0.24
2024-01-16T05:03:38.004Z,0.25
2024-01-16T05:06:08.772Z,0.29
2024-01-16T05:08:38.731Z,0.36
2024-01-16T05:11:12.191Z,0.40
2024-01-16T05:13:42.113Z,0.32
2024-01-16T05:16:12.073Z,0.34
2024-01-16T05:18:42.093Z,0.38
2024-01-16T05:21:12.025Z,0.26
2024-01-16T05:23:42.197Z,0.37
2024-01-16T05:26:15.308Z,0.41
2024-01-16T05:28:45.263Z,0.37
2024-01-16T05:31:15.291Z,0.28
2024-01-16T05:33:45.378Z,0.32
2024-01-16T05:36:15.593Z,0.08
2024-01-16T05:38:45.626Z,0.20
2024-01-16T05:41:18.435Z,0.24
2024-01-16T05:43:47.995Z,0.30
2024-01-16T05:46:18.030Z,0.27
2024-01-16T05:48:48.674Z,0.25
2024-01-16T05:51:19.178Z,0.25
2024-01-16T05:53:49.428Z,0.15
2024-01-16T05:56:22.234Z,0.13
2024-01-16T05:58:53.623Z,0.11
2024-01-16T06:01:23.839Z,0.11
2024-01-16T06:03:53.774Z,0.07
2024-01-16T06:06:23.697Z,0.04
2024-01-16T06:08:53.577Z,0.00
2024-01-16T06:14:03.256Z,0.04
2024-01-16T06:16:33.914Z,0.03
2024-01-16T06:19:03.797Z,0.05
2024-01-16T06:21:33.905Z,0.04
2024-01-16T06:24:03.958Z,0.06
2024-01-16T06:26:37.392Z,0.01
2024-01-16T06:29:11.594Z,0.01
2024-01-16T06:31:47.891Z,0.03
2024-01-16T06:34:17.830Z,0.10
2024-01-16T06:36:48.202Z,0.04
2024-01-16T06:39:18.692Z,0.09
2024-01-16T06:41:51.254Z,0.10
2024-01-16T06:44:22.312Z,0.17
2024-01-16T06:46:52.177Z,0.20
2024-01-16T06:49:22.092Z,0.21
2024-01-16T06:51:52.177Z,0.02
2024-01-16T06:54:24.670Z,0.31
2024-01-16T06:56:57.218Z,0.44
2024-01-16T06:59:27.089Z,0.49
2024-01-16T07:01:57.124Z,0.51
2024-01-16T07:04:27.277Z,0.42
2024-01-16T07:06:57.104Z,0.41
2024-01-16T07:09:27.000Z,0.02
2024-01-16T07:11:59.518Z,0.28
2024-01-16T07:14:29.796Z,0.25
2024-01-16T07:17:00.307Z,0.18
2024-01-16T07:19:30.724Z,0.18
2024-01-16T07:22:00.572Z,0.08
2024-01-16T07:24:30.635Z,0.26
2024-01-16T07:27:03.243Z,0.23
2024-01-16T07:29:33.209Z,0.22
2024-01-16T07:32:04.106Z,0.10
2024-01-16T07:34:35.430Z,0.21
2024-01-16T07:37:05.553Z,0.25
2024-01-16T07:39:35.863Z,0.29
2024-01-16T07:42:09.220Z,0.38
2024-01-16T07:44:39.117Z,0.44
2024-01-16T07:47:10.107Z,0.38
2024-01-16T07:49:40.127Z,0.41
2024-01-16T07:52:10.214Z,0.22
2024-01-16T07:54:40.058Z,0.36
2024-01-16T07:57:13.427Z,0.35
2024-01-16T07:59:44.001Z,0.38
2024-01-16T08:02:15.398Z,0.31
2024-01-16T08:04:45.237Z,0.40
2024-01-16T08:07:15.692Z,0.46
2024-01-16T08:09:45.753Z,0.46
2024-01-16T08:12:18.606Z,0.50
2024-01-16T08:14:48.668Z,0.52
2024-01-16T08:17:19.204Z,0.21
2024-01-16T08:19:49.292Z,0.54
2024-01-16T08:22:22.055Z,0.56
2024-01-16T08:24:51.891Z,0.55
2024-01-16T08:27:24.493Z,0.60
2024-01-16T08:29:54.424Z,0.60
2024-01-16T08:32:24.308Z,0.62
2024-01-16T08:34:54.909Z,0.63
2024-01-16T08:37:26.788Z,0.60
2024-01-16T08:39:56.875Z,0.60
2024-01-16T08:42:30.468Z,0.63
2024-01-16T08:45:00.857Z,0.75
2024-01-16T08:47:31.133Z,0.78
2024-01-16T08:50:01.182Z,0.69
2024-01-16T08:52:32.065Z,0.76
2024-01-16T08:55:01.991Z,0.77
2024-01-16T08:57:34.730Z,0.74
2024-01-16T09:00:04.978Z,0.83
2024-01-16T09:02:35.084Z,0.61
2024-01-16T09:05:06.476Z,0.77
2024-01-16T09:07:36.520Z,0.80
2024-01-16T09:10:07.114Z,0.87
2024-01-16T09:12:40.332Z,0.92
2024-01-16T09:15:11.784Z,0.90
2024-01-16T09:17:41.934Z,0.90
2024-01-16T09:20:13.406Z,0.89
2024-01-16T09:22:43.538Z,0.90
2024-01-16T09:25:13.425Z,0.99
2024-01-16T09:27:47.071Z,0.93
2024-01-16T09:30:17.740Z,0.98
2024-01-16T09:32:47.697Z,1.07
2024-01-16T09:35:18.064Z,1.04
2024-01-16T09:37:48.258Z,1.18
2024-01-16T09:40:18.203Z,1.28
2024-01-16T09:42:51.027Z,1.34
2024-01-16T09:45:24.420Z,1.38
2024-01-16T09:47:55.537Z,1.32
2024-01-16T09:50:26.855Z,1.45
2024-01-16T09:52:59.899Z,1.57
2024-01-16T09:55:30.126Z,1.56
2024-01-16T09:58:04.844Z,1.71
2024-01-16T10:00:35.257Z,1.87
2024-01-16T10:03:06.140Z,1.79
2024-01-16T10:05:37.315Z,2.02
2024-01-16T10:08:09.226Z,2.28
2024-01-16T10:10:47.629Z,2.25
2024-01-16T10:13:23.622Z,2.29
2024-01-16T10:15:56.744Z,2.18
2024-01-16T10:18:28.634Z,2.25
2024-01-16T10:20:58.890Z,2.33
2024-01-16T10:23:29.797Z,2.43
2024-01-16T10:26:13.176Z,2.29
2024-01-16T10:28:46.831Z,2.37
2024-01-16T10:31:18.461Z,2.68
2024-01-16T10:33:48.595Z,2.76
2024-01-16T10:36:21.981Z,2.88
2024-01-16T10:38:58.760Z,2.72
2024-01-16T10:41:28.960Z,3.09
2024-01-16T10:44:09.521Z,2.99
2024-01-16T10:46:40.079Z,3.02
2024-01-16T10:49:10.149Z,2.87
2024-01-16T10:51:41.029Z,2.75
2024-01-16T10:54:15.212Z,2.80
2024-01-16T10:56:49.677Z,2.93
2024-01-16T10:59:28.992Z,2.70
2024-01-16T11:02:02.231Z,2.75
2024-01-16T11:04:33.356Z,2.68
2024-01-16T11:07:05.690Z,2.70
2024-01-16T11:09:36.815Z,3.04
2024-01-16T11:12:07.919Z,3.08
2024-01-16T11:14:41.147Z,3.13
2024-01-16T11:17:18.830Z,3.19
2024-01-16T11:20:07.222Z,3.12
2024-01-16T11:22:42.429Z,2.98
2024-01-16T11:25:14.289Z,2.88
2024-01-16T11:27:45.608Z,2.69
2024-01-16T11:30:34.089Z,2.47
2024-01-16T11:33:06.306Z,2.46
2024-01-16T11:35:38.142Z,2.33
2024-01-16T11:38:09.995Z,2.04
2024-01-16T11:40:40.262Z,2.12
2024-01-16T11:43:40.236Z,2.16
2024-01-16T11:46:13.268Z,2.26
2024-01-16T11:48:44.291Z,2.38
2024-01-16T11:51:27.715Z,2.38
2024-01-16T11:53:57.597Z,2.40
2024-01-16T11:56:59.330Z,2.33
2024-01-16T11:59:59.197Z,2.51
2024-01-16T12:02:42.678Z,2.43
2024-01-16T12:05:15.509Z,2.61
2024-01-16T12:07:51.286Z,2.73
2024-01-16T12:10:22.559Z,2.97
2024-01-16T12:12:54.173Z,2.63
2024-01-16T12:15:25.094Z,2.83
2024-01-16T12:18:02.536Z,2.83
2024-01-16T12:20:34.595Z,2.58
2024-01-16T12:23:05.957Z,2.73
2024-01-16T12:26:00.813Z,2.56
2024-01-16T12:28:32.397Z,2.66
2024-01-16T12:31:04.782Z,2.68
2024-01-16T12:33:38.945Z,2.41
2024-01-16T12:36:12.069Z,2.40
2024-01-16T12:38:42.020Z,2.47
2024-01-16T12:41:14.599Z,2.23
2024-01-16T12:43:41.988Z,2.17
2024-01-16T12:46:15.319Z,1.97
2024-01-16T12:48:56.379Z,2.13
2024-01-16T12:51:33.359Z,2.05
2024-01-16T12:54:15.274Z,1.94
2024-01-16T12:56:45.710Z,2.14
2024-01-16T12:59:16.323Z,2.07
2024-01-16T13:01:47.934Z,2.06
2024-01-16T13:04:20.848Z,2.00
2024-01-16T13:06:51.858Z,2.13
2024-01-16T13:09:27.524Z,2.09
2024-01-16T13:12:00.049Z,2.08
2024-01-16T13:14:29.961Z,2.13
2024-01-16T13:17:00.185Z,2.11
2024-01-16T13:19:35.009Z,2.07
2024-01-16T13:22:05.464Z,1.94
2024-01-16T13:24:35.542Z,1.98
2024-01-16T13:27:05.768Z,1.97
2024-01-16T13:29:39.480Z,1.91
2024-01-16T13:32:10.037Z,1.98
2024-01-16T13:34:47.695Z,1.80
2024-01-16T13:37:24.318Z,1.90
2024-01-16T13:39:54.136Z,1.89
2024-01-16T13:42:24.064Z,1.94
2024-01-16T13:44:54.487Z,1.88
2024-01-16T13:47:24.602Z,1.90
2024-01-16T13:49:57.545Z,1.81
2024-01-16T13:52:29.320Z,1.77
2024-01-16T13:54:59.342Z,1.79
2024-01-16T13:57:29.378Z,1.82
2024-01-16T14:00:00.195Z,1.84
2024-01-16T14:02:31.193Z,1.79
2024-01-16T14:05:03.774Z,1.81
2024-01-16T14:07:34.139Z,1.64
2024-01-16T14:10:06.049Z,1.73
2024-01-16T14:12:36.882Z,1.72
2024-01-16T14:15:17.169Z,1.60
2024-01-16T14:17:48.236Z,1.59
2024-01-16T14:20:27.210Z,1.58
2024-01-16T14:22:59.108Z,1.59
2024-01-16T14:25:29.147Z,1.50
2024-01-16T14:28:04.872Z,1.55
2024-01-16T14:30:36.355Z,1.54
2024-01-16T14:33:08.422Z,1.53
2024-01-16T14:35:42.142Z,1.54
2024-01-16T14:38:12.035Z,1.60
2024-01-16T14:40:41.930Z,1.35
2024-01-16T14:43:11.865Z,1.39
2024-01-16T14:45:41.923Z,1.34
2024-01-16T14:48:12.811Z,1.36
2024-01-16T14:50:45.445Z,1.23
2024-01-16T14:53:15.910Z,1.25
2024-01-16T14:55:46.015Z,1.17
2024-01-16T14:58:16.116Z,1.18
2024-01-16T15:00:46.984Z,1.14
2024-01-16T15:03:19.618Z,1.09
2024-01-16T15:05:56.479Z,1.11
2024-01-16T15:08:27.531Z,1.05
2024-01-16T15:10:57.667Z,0.94
2024-01-16T15:13:27.618Z,0.98
2024-01-16T15:15:57.753Z,0.89
2024-01-16T15:18:31.092Z,0.84
2024-01-16T15:21:03.755Z,0.86
2024-01-16T15:23:33.618Z,0.83
2024-01-16T15:26:06.229Z,0.79
2024-01-16T15:28:36.943Z,0.59
2024-01-16T15:31:08.989Z,0.60
2024-01-16T15:33:40.079Z,0.52
2024-01-16T15:36:12.871Z,0.21
2024-01-16T15:38:42.538Z,0.39
2024-01-16T15:41:12.379Z,0.36
2024-01-16T15:43:42.493Z,0.31
2024-01-16T15:46:12.480Z,0.25
2024-01-16T15:48:44.110Z,0.24
2024-01-16T15:51:17.546Z,0.22
2024-01-16T15:53:47.596Z,0.27
2024-01-16T15:56:17.594Z,0.21
2024-01-16T15:58:47.400Z,0.29
2024-01-16T16:01:17.271Z,0.28
2024-01-16T16:03:48.121Z,0.30
2024-01-16T16:06:20.692Z,0.25
2024-01-16T16:08:50.739Z,0.39
2024-01-16T16:11:20.908Z,0.38
2024-01-16T16:13:50.811Z,0.33
2024-01-16T16:16:20.744Z,0.30
2024-01-16T16:18:51.142Z,0.35
2024-01-16T16:23:52.441Z,0.33
2024-01-16T16:26:34.436Z,0.37
2024-01-16T16:29:05.658Z,0.42
2024-01-16T16:31:36.227Z,0.38
2024-01-16T16:34:08.080Z,0.46
2024-01-16T16:36:42.976Z,0.47
2024-01-16T16:39:14.418Z,0.46
2024-01-16T16:41:44.888Z,0.47
2024-01-16T16:44:15.296Z,0.44
2024-01-16T16:46:45.609Z,0.47
2024-01-16T16:49:15.842Z,0.47
2024-01-16T16:51:48.928Z,0.52
2024-01-16T16:54:18.923Z,0.51
2024-01-16T16:56:48.787Z,0.54
2024-01-16T16:59:19.414Z,0.46
2024-01-16T17:01:49.335Z,0.42
2024-01-16T17:04:19.279Z,0.63
2024-01-16T17:06:51.955Z,0.66
2024-01-16T17:09:22.825Z,0.66
2024-01-16T17:11:52.667Z,0.67
2024-01-16T17:14:22.880Z,0.71
2024-01-16T17:16:52.960Z,0.67
2024-01-16T17:19:23.303Z,0.74
2024-01-16T17:21:55.984Z,0.68
2024-01-16T17:24:25.905Z,0.75
2024-01-16T17:26:55.821Z,0.78
2024-01-16T17:29:26.841Z,0.77
2024-01-16T17:31:57.959Z,0.81
2024-01-16T17:34:28.102Z,0.80
2024-01-16T17:37:00.787Z,0.80
2024-01-16T17:39:30.919Z,0.83
2024-01-16T17:42:01.137Z,0.85
2024-01-16T17:44:39.169Z,0.83
2024-01-16T17:47:09.432Z,0.86
2024-01-16T17:49:39.257Z,0.85
2024-01-16T17:52:12.429Z,0.88
2024-01-16T17:54:43.016Z,0.89
2024-01-16T17:57:13.418Z,0.87
2024-01-16T17:59:44.324Z,0.79
2024-01-16T18:02:14.316Z,0.76
2024-01-16T18:04:45.284Z,0.52
2024-01-16T18:07:17.923Z,0.77
2024-01-16T18:09:48.453Z,0.81
2024-01-16T18:12:18.633Z,0.62
2024-01-16T18:14:48.957Z,0.87
2024-01-16T18:17:19.856Z,0.86
2024-01-16T18:19:51.013Z,0.85
2024-01-16T18:22:23.577Z,0.83
2024-01-16T18:24:54.600Z,0.85
2024-01-16T18:27:24.424Z,0.83
2024-01-16T18:29:54.364Z,0.76
2024-01-16T18:32:24.378Z,0.67
2024-01-16T18:34:54.466Z,0.74
2024-01-16T18:37:27.007Z,0.72
2024-01-16T18:39:56.979Z,0.66
2024-01-16T18:42:26.779Z,0.59
2024-01-16T18:44:57.551Z,0.58
2024-01-16T18:47:28.028Z,0.57
2024-01-16T18:49:58.052Z,0.56
2024-01-16T18:52:30.495Z,0.46
2024-01-16T18:55:00.673Z,0.44
2024-01-16T18:57:32.571Z,0.45
2024-01-16T19:00:02.668Z,0.47
2024-01-16T19:02:33.507Z,0.39
2024-01-16T19:05:03.709Z,0.39
2024-01-16T19:07:36.153Z,0.39
2024-01-16T19:10:07.208Z,0.18
2024-01-16T19:12:37.311Z,0.46
2024-01-16T19:15:08.140Z,0.42
2024-01-16T19:17:38.118Z,0.39
2024-01-16T19:20:11.505Z,0.34
2024-01-16T19:22:44.843Z,0.38
2024-01-16T19:25:17.717Z,0.38
2024-01-16T19:27:49.600Z,0.30
2024-01-16T19:30:21.080Z,0.31
2024-01-16T19:32:51.786Z,0.19
2024-01-16T19:35:22.112Z,0.09
2024-01-16T19:37:54.519Z,0.11
2024-01-16T19:40:25.631Z,0.07
2024-01-16T19:42:55.761Z,-0.27
2024-01-16T19:45:26.530Z,-0.05
2024-01-16T19:47:56.567Z,-0.11
2024-01-16T19:50:27.095Z,-0.22
2024-01-16T19:53:00.808Z,-0.22
2024-01-16T19:55:31.013Z,-0.28
2024-01-16T19:58:00.962Z,-0.36
2024-01-16T20:00:31.079Z,-0.39
2024-01-16T20:03:01.366Z,-0.42
2024-01-16T20:05:32.615Z,-0.50
2024-01-16T20:08:05.528Z,-0.42
2024-01-16T20:10:39.790Z,-0.47
2024-01-16T20:13:10.441Z,-0.47
2024-01-16T20:15:40.336Z,-0.48
2024-01-16T20:18:10.912Z,-0.49
2024-01-16T20:20:40.847Z,-0.53
2024-01-16T20:23:14.164Z,-0.51
2024-01-16T20:25:44.031Z,-0.59
2024-01-16T20:28:15.813Z,-0.66
2024-01-16T20:30:45.679Z,-0.62
2024-01-16T20:33:16.308Z,-0.65
2024-01-16T20:35:46.172Z,-0.70
2024-01-16T20:38:18.778Z,-0.74
2024-01-16T20:40:49.625Z,-0.76
2024-01-16T20:43:19.943Z,-0.77
2024-01-16T20:45:50.238Z,-0.80
2024-01-16T20:48:20.212Z,-0.76
2024-01-16T20:50:50.257Z,-0.76
2024-01-16T20:53:22.878Z,-0.81
2024-01-16T20:55:52.845Z,-0.77
2024-01-16T20:58:23.533Z,-0.82
2024-01-16T21:00:53.828Z,-0.98
2024-01-16T21:03:26.212Z,-1.14
2024-01-16T21:05:57.861Z,-0.90
2024-01-16T21:08:30.512Z,-0.94
2024-01-16T21:11:00.623Z,-0.90
2024-01-16T21:13:30.647Z,-1.01
2024-01-16T21:16:03.105Z,-1.01
2024-01-16T21:18:33.399Z,-1.00
2024-01-16T21:21:03.817Z,-1.05
2024-01-16T21:23:36.652Z,-1.10
2024-01-16T21:26:11.410Z,-1.12
2024-01-16T21:28:41.624Z,-1.15
2024-01-16T21:31:11.753Z,-1.15
2024-01-16T21:33:43.414Z,-1.15
2024-01-16T21:36:15.377Z,-1.18
2024-01-16T21:38:48.046Z,-1.25
2024-01-16T21:41:17.976Z,-1.21
2024-01-16T21:43:47.862Z,-1.25
2024-01-16T21:46:17.963Z,-1.28
2024-01-16T21:48:48.597Z,-1.40
2024-01-16T21:51:18.751Z,-1.34
2024-01-16T21:53:51.317Z,-1.36
2024-01-16T21:56:22.078Z,-1.37
2024-01-16T21:58:52.111Z,-1.35
2024-01-16T22:01:22.445Z,-1.31
2024-01-16T22:03:53.112Z,-1.34
2024-01-16T22:06:24.350Z,-1.31
2024-01-16T22:08:57.715Z,-1.31
2024-01-16T22:11:27.942Z,-1.29
2024-01-16T22:13:57.795Z,-1.34
2024-01-16T22:16:28.617Z,-1.31
2024-01-16T22:18:58.804Z,-1.31
2024-01-16T22:21:28.867Z,-1.33
2024-01-16T22:24:01.698Z,-1.30
2024-01-16T22:26:32.755Z,-1.30
2024-01-16T22:29:03.631Z,-1.28
2024-01-16T22:31:33.857Z,-1.31
2024-01-16T22:34:04.203Z,-1.31
2024-01-16T22:36:34.247Z,-1.27
2024-01-16T22:39:06.873Z,-1.29
2024-01-16T22:41:36.802Z,-1.31
2024-01-16T22:44:08.544Z,-1.29
2024-01-16T22:46:38.622Z,-1.34
2024-01-16T22:49:08.842Z,-1.33
2024-01-16T22:51:39.716Z,-1.37
2024-01-16T22:54:12.615Z,-1.38
2024-01-16T22:56:42.463Z,-1.38
2024-01-16T22:59:12.278Z,-1.41
2024-01-16T23:01:43.315Z,-1.45
2024-01-16T23:04:13.231Z,-1.43
2024-01-16T23:06:43.470Z,-1.48
2024-01-16T23:09:15.970Z,-1.49
2024-01-16T23:11:46.307Z,-1.49
2024-01-16T23:14:16.203Z,-1.51
2024-01-16T23:16:46.157Z,-1.50
2024-01-16T23:19:16.761Z,-1.49
2024-01-16T23:21:50.184Z,-1.63
2024-01-16T23:24:22.886Z,-1.48
2024-01-16T23:26:52.796Z,-1.48
2024-01-16T23:29:22.743Z,-1.50
2024-01-16T23:31:52.584Z,-1.58
2024-01-16T23:34:22.664Z,-1.54
2024-01-16T23:36:52.766Z,-1.52
2024-01-16T23:39:26.919Z,-1.61
2024-01-16T23:41:57.785Z,-1.47
2024-01-16T23:44:28.006Z,-1.45
2024-01-16T23:46:58.054Z,-1.49
2024-01-16T23:49:27.876Z,-1.50
2024-01-16T23:51:57.683Z,-1.50
2024-01-16T23:54:30.222Z,-1.57
2024-01-16T23:57:00.114Z,-1.54
2024-01-16T23:59:29.933Z,-1.56
